Time;durP1;ratioP1;P1;durP2;ratioP2;P2;SDS_P1;SDS_P2;PMS_P1;PMS_P2;Temp;Humidity;BMP_temperature;BMP_pressure;BME280_temperature;BME280_humidity;BME280_pressure;Samples;Min_cycle;Max_cycle;Signal;HPM_P1;HPM_P2
2023/11/12 00:00:32;;;;;;;6.75;5.07;;;7.70;99.90;;;;;;4170727;28;20061;-65
2023/11/12 00:02:33;;;;;;;8.02;4.78;;;7.70;99.90;;;;;;4165805;28;20063;-65
2023/11/12 00:04:34;;;;;;;6.65;4.47;;;7.70;99.90;;;;;;4178120;28;20044;-65
2023/11/12 00:06:35;;;;;;;6.32;4.68;;;7.70;99.90;;;;;;4176502;28;20099;-65
2023/11/12 00:08:36;;;;;;;6.70;4.78;;;7.70;99.90;;;;;;4177027;28;20033;-65
2023/11/12 00:10:36;;;;;;;6.45;4.07;;;7.70;99.90;;;;;;4173813;28;20065;-65
2023/11/12 00:12:37;;;;;;;7.40;4.75;;;7.70;99.90;;;;;;4176897;28;20457;-65
2023/11/12 00:14:40;;;;;;;8.68;4.72;;;7.70;99.90;;;;;;4165619;28;20041;-65
2023/11/12 00:16:41;;;;;;;7.78;4.90;;;7.70;99.90;;;;;;4185446;28;20456;-65
2023/11/12 00:18:41;;;;;;;10.05;5.07;;;7.80;99.90;;;;;;4140371;28;20041;-65
2023/11/12 00:21:02;;;;;;;6.80;4.72;;;7.80;99.90;;;;;;4177304;28;20033;-65
2023/11/12 00:23:24;;;;;;;8.48;4.88;;;7.70;99.90;;;;;;4171765;28;20159;-65
2023/11/12 00:25:24;;;;;;;8.02;5.03;;;7.80;99.90;;;;;;4169253;28;20029;-65
2023/11/12 00:27:27;;;;;;;7.78;4.45;;;7.80;99.90;;;;;;4161565;28;20539;-65
2023/11/12 00:29:27;;;;;;;8.30;5.05;;;7.80;99.90;;;;;;4168322;28;20041;-65
2023/11/12 00:31:28;;;;;;;7.05;4.68;;;7.80;99.90;;;;;;4159263;28;20431;-65
2023/11/12 00:33:29;;;;;;;7.05;4.75;;;7.80;99.90;;;;;;4160951;28;20034;-65
2023/11/12 00:35:30;;;;;;;7.35;4.88;;;7.80;99.90;;;;;;4166898;28;20052;-65
2023/11/12 00:37:30;;;;;;;8.20;5.05;;;7.80;99.90;;;;;;4166445;28;20037;-68
2023/11/12 00:39:31;;;;;;;8.85;5.10;;;7.80;99.90;;;;;;4168417;28;20042;-69
2023/11/12 00:41:32;;;;;;;7.78;5.35;;;7.90;99.90;;;;;;4171888;28;20090;-69
2023/11/12 00:43:34;;;;;;;7.80;4.82;;;7.80;99.90;;;;;;4166443;28;20104;-69
2023/11/12 00:45:35;;;;;;;9.20;5.05;;;7.90;99.90;;;;;;4172074;28;20119;-69
2023/11/12 00:47:35;;;;;;;7.10;5.18;;;7.90;99.90;;;;;;4175065;28;20068;-69
2023/11/12 00:49:36;;;;;;;8.65;5.72;;;7.90;99.90;;;;;;4170853;28;20116;-69
2023/11/12 00:51:37;;;;;;;9.50;5.63;;;7.90;99.90;;;;;;4173515;28;20057;-69
2023/11/12 00:53:37;;;;;;;6.82;5.00;;;7.90;99.90;;;;;;4167132;28;20057;-69
2023/11/12 00:55:38;;;;;;;7.97;4.97;;;7.90;99.90;;;;;;4162843;28;20041;-69
2023/11/12 00:57:39;;;;;;;7.43;4.82;;;7.90;99.90;;;;;;4174059;28;20112;-69
2023/11/12 00:59:39;;;;;;;7.95;5.22;;;7.90;99.90;;;;;;4180794;28;20040;-69
2023/11/12 01:01:40;;;;;;;8.40;5.65;;;7.90;99.90;;;;;;4156619;28;20386;-69
2023/11/12 01:03:41;;;;;;;8.85;5.18;;;7.90;99.90;;;;;;4159128;28;20033;-69
2023/11/12 01:05:41;;;;;;;7.45;5.18;;;7.90;99.90;;;;;;4167201;28;20033;-69
2023/11/12 01:07:42;;;;;;;6.57;4.80;;;7.90;99.90;;;;;;4173328;28;20124;-69
2023/11/12 01:09:42;;;;;;;6.35;5.00;;;7.90;99.90;;;;;;4169303;28;20040;-69
2023/11/12 01:11:43;;;;;;;9.27;5.45;;;7.90;99.90;;;;;;4160965;28;20031;-69
2023/11/12 01:13:44;;;;;;;7.10;4.82;;;7.90;99.90;;;;;;4173128;28;20032;-69
2023/11/12 01:15:45;;;;;;;8.10;4.68;;;7.90;99.90;;;;;;4173698;28;20188;-68
2023/11/12 01:17:45;;;;;;;8.75;5.95;;;7.90;99.90;;;;;;4176095;28;20112;-69
2023/11/12 01:19:46;;;;;;;7.07;4.72;;;7.90;99.90;;;;;;4171879;28;20119;-69
2023/11/12 01:21:47;;;;;;;7.97;5.03;;;7.90;99.90;;;;;;4173243;28;20036;-69
2023/11/12 01:23:47;;;;;;;7.80;4.85;;;7.80;99.90;;;;;;4171437;28;20854;-69
2023/11/12 01:25:48;;;;;;;8.13;5.65;;;7.80;99.90;;;;;;4158524;28;20481;-69
2023/11/12 01:27:49;;;;;;;7.47;5.10;;;7.80;99.90;;;;;;4159809;28;20044;-68
2023/11/12 01:29:49;;;;;;;9.05;5.65;;;7.80;99.90;;;;;;4171189;28;20036;-69
2023/11/12 01:31:50;;;;;;;8.00;4.75;;;7.80;99.90;;;;;;4169976;28;20029;-69
2023/11/12 01:33:52;;;;;;;6.07;4.75;;;7.80;99.90;;;;;;4175597;28;20136;-69
2023/11/12 01:35:52;;;;;;;7.90;5.43;;;7.80;99.90;;;;;;4175784;28;20057;-69
2023/11/12 01:37:53;;;;;;;7.38;4.97;;;7.80;99.90;;;;;;4176834;28;20048;-69
2023/11/12 01:39:54;;;;;;;8.65;5.65;;;7.80;99.90;;;;;;4171500;28;20049;-68
2023/11/12 01:41:54;;;;;;;6.78;4.47;;;7.80;99.90;;;;;;4159986;28;20417;-69
2023/11/12 01:43:55;;;;;;;7.68;5.18;;;7.80;99.90;;;;;;4167386;28;20036;-69
2023/11/12 01:45:57;;;;;;;6.47;4.43;;;7.80;99.90;;;;;;4175680;28;20069;-69
2023/11/12 01:47:58;;;;;;;6.60;4.68;;;7.80;99.90;;;;;;4177047;28;20065;-69
2023/11/12 01:49:59;;;;;;;6.50;4.85;;;7.80;99.90;;;;;;4165694;28;20048;-69
2023/11/12 01:52:00;;;;;;;7.07;5.20;;;7.80;99.90;;;;;;4172339;28;20037;-69
2023/11/12 01:54:02;;;;;;;6.65;5.10;;;7.80;99.90;;;;;;4177051;28;20049;-69
2023/11/12 01:56:07;;;;;;;6.20;4.95;;;7.70;99.90;;;;;;4176232;28;20109;-69
2023/11/12 01:58:11;;;;;;;9.30;5.50;;;7.70;99.90;;;;;;4177729;28;20473;-69
2023/11/12 02:00:15;;;;;;;6.88;5.10;;;7.70;99.90;;;;;;4174006;28;20485;-69
2023/11/12 02:02:17;;;;;;;7.40;4.90;;;7.60;99.90;;;;;;4177252;28;20112;-69
2023/11/12 02:04:19;;;;;;;8.20;5.67;;;7.60;99.90;;;;;;4176982;28;20127;-69
2023/11/12 02:06:19;;;;;;;8.75;5.20;;;7.60;99.90;;;;;;4176316;28;20037;-69
2023/11/12 02:08:21;;;;;;;7.70;5.57;;;7.50;99.90;;;;;;4173387;28;20029;-69
2023/11/12 02:10:22;;;;;;;8.00;5.35;;;7.60;99.90;;;;;;4160315;28;20042;-69
2023/11/12 02:12:23;;;;;;;8.52;5.25;;;7.50;99.90;;;;;;4161213;28;20389;-69
2023/11/12 02:14:25;;;;;;;8.70;5.00;;;7.50;99.90;;;;;;4165297;28;20111;-69
2023/11/12 02:16:26;;;;;;;10.70;5.28;;;7.50;99.90;;;;;;4166815;28;20533;-69
2023/11/12 02:18:27;;;;;;;9.77;5.45;;;7.50;99.90;;;;;;4176317;28;20029;-69
2023/11/12 02:20:27;;;;;;;6.50;5.15;;;7.50;99.90;;;;;;4166710;28;20047;-69
2023/11/12 02:22:28;;;;;;;9.38;6.05;;;7.50;99.90;;;;;;4160175;28;20044;-69
2023/11/12 02:24:28;;;;;;;10.00;6.20;;;7.50;99.90;;;;;;4170673;28;20037;-69
2023/11/12 02:26:29;;;;;;;9.43;5.38;;;7.50;99.90;;;;;;4170121;28;20038;-69
2023/11/12 02:28:30;;;;;;;9.57;5.35;;;7.50;99.90;;;;;;4170750;28;20030;-69
2023/11/12 02:30:30;;;;;;;11.40;6.07;;;7.50;99.90;;;;;;4164175;28;20037;-69
2023/11/12 02:32:32;;;;;;;8.40;5.30;;;7.50;99.90;;;;;;4171690;28;20362;-69
2023/11/12 02:34:33;;;;;;;9.23;5.50;;;7.40;99.90;;;;;;4166392;28;20077;-69
2023/11/12 02:36:35;;;;;;;8.57;5.80;;;7.50;99.90;;;;;;4174571;28;20041;-68
2023/11/12 02:38:35;;;;;;;11.27;6.20;;;7.40;99.90;;;;;;4172186;28;20033;-69
2023/11/12 02:40:37;;;;;;;10.10;6.55;;;7.40;99.90;;;;;;4165877;28;20481;-69
2023/11/12 02:42:38;;;;;;;7.20;5.15;;;7.40;99.90;;;;;;4174333;28;20037;-69
2023/11/12 02:44:39;;;;;;;7.93;5.43;;;7.40;99.90;;;;;;4168883;28;20124;-69
2023/11/12 02:46:40;;;;;;;10.70;5.93;;;7.40;99.90;;;;;;4174190;28;20071;-69
2023/11/12 02:49:19;;;;;;;9.15;6.38;;;7.40;99.90;;;;;;4170472;28;20034;-69
2023/11/12 02:51:19;;;;;;;8.00;5.68;;;7.40;99.90;;;;;;4158281;28;20066;-68
2023/11/12 02:53:20;;;;;;;8.43;5.30;;;7.40;99.90;;;;;;4172222;28;20088;-69
2023/11/12 02:55:21;;;;;;;9.93;5.80;;;7.40;99.90;;;;;;4168731;28;20041;-68
2023/11/12 02:57:22;;;;;;;9.05;5.93;;;7.40;99.90;;;;;;4165526;28;20040;-77
2023/11/12 02:59:23;;;;;;;7.88;5.80;;;7.30;99.90;;;;;;4174617;28;20033;-69
2023/11/12 03:01:24;;;;;;;9.45;6.55;;;7.30;99.90;;;;;;4174809;28;20437;-69
2023/11/12 03:03:27;;;;;;;8.30;5.70;;;7.30;99.90;;;;;;4175314;28;20531;-69
2023/11/12 03:05:29;;;;;;;12.18;6.47;;;7.30;99.90;;;;;;4163657;28;20047;-69
2023/11/12 03:07:29;;;;;;;10.60;5.72;;;7.30;99.90;;;;;;4160110;28;20049;-69
2023/11/12 03:09:30;;;;;;;8.30;6.00;;;7.30;99.90;;;;;;4166930;28;20497;-69
2023/11/12 03:11:31;;;;;;;9.63;6.22;;;7.20;99.90;;;;;;4174650;28;20033;-69
2023/11/12 03:13:32;;;;;;;9.98;6.03;;;7.20;99.90;;;;;;4173812;28;20037;-69
2023/11/12 03:15:32;;;;;;;9.00;6.15;;;7.20;99.90;;;;;;4159277;28;20409;-69
2023/11/12 03:17:34;;;;;;;9.55;5.43;;;7.20;99.90;;;;;;4164365;28;20048;-69
2023/11/12 03:19:34;;;;;;;8.80;5.82;;;7.20;99.90;;;;;;4182641;28;20051;-68
2023/11/12 03:21:35;;;;;;;9.82;6.22;;;7.20;99.90;;;;;;4174602;28;20392;-69
2023/11/12 03:23:35;;;;;;;9.70;6.20;;;7.20;99.90;;;;;;4174933;28;20044;-69
2023/11/12 03:25:36;;;;;;;9.38;6.35;;;7.10;99.90;;;;;;4175224;28;20037;-69
2023/11/12 03:27:37;;;;;;;11.57;6.38;;;7.10;99.90;;;;;;4177346;28;20135;-69
2023/11/12 03:29:37;;;;;;;10.35;6.57;;;7.10;99.90;;;;;;4172599;28;20477;-69
2023/11/12 03:31:38;;;;;;;12.82;6.25;;;7.10;99.90;;;;;;4178507;28;20033;-69
2023/11/12 03:33:39;;;;;;;9.55;6.30;;;7.20;99.90;;;;;;4177886;28;20115;-69
2023/11/12 03:35:39;;;;;;;9.00;5.93;;;7.10;99.90;;;;;;4175491;28;20515;-69
2023/11/12 03:37:40;;;;;;;13.07;6.63;;;7.20;99.90;;;;;;4172502;28;20029;-69
2023/11/12 03:39:40;;;;;;;10.02;6.65;;;7.10;99.90;;;;;;4177736;28;20063;-68
2023/11/12 03:41:41;;;;;;;8.77;6.15;;;7.10;99.90;;;;;;4174586;28;20029;-69
2023/11/12 03:43:42;;;;;;;13.30;6.90;;;7.10;99.90;;;;;;4179366;28;20404;-69
2023/11/12 03:45:43;;;;;;;9.13;6.70;;;7.10;99.90;;;;;;4170135;28;20033;-69
2023/11/12 03:47:43;;;;;;;9.38;6.03;;;7.10;99.90;;;;;;4177553;28;20439;-69
2023/11/12 03:49:44;;;;;;;13.35;6.30;;;7.10;99.90;;;;;;4165836;28;20041;-69
2023/11/12 03:51:45;;;;;;;9.13;5.35;;;7.10;99.90;;;;;;4176727;28;20060;-69
2023/11/12 03:53:45;;;;;;;13.63;6.47;;;7.10;99.90;;;;;;4166638;28;20436;-69
2023/11/12 03:55:46;;;;;;;10.20;5.85;;;7.10;99.90;;;;;;4177966;28;20041;-69
2023/11/12 03:57:47;;;;;;;10.65;6.50;;;7.10;99.90;;;;;;4177393;28;20454;-69
2023/11/12 03:59:51;;;;;;;9.23;5.85;;;7.00;99.90;;;;;;4172900;28;20076;-69
2023/11/12 04:01:51;;;;;;;8.35;6.03;;;7.10;99.90;;;;;;4165286;28;20029;-69
2023/11/12 04:03:52;;;;;;;8.10;5.68;;;7.10;99.90;;;;;;4176679;28;20123;-69
2023/11/12 04:05:53;;;;;;;7.15;5.03;;;7.00;99.90;;;;;;4173854;28;20519;-69
2023/11/12 04:07:54;;;;;;;11.05;5.70;;;7.00;99.90;;;;;;4177357;28;20037;-65
2023/11/12 04:09:55;;;;;;;7.53;5.70;;;7.10;99.90;;;;;;4174353;28;20079;-65
2023/11/12 04:11:55;;;;;;;9.52;6.18;;;7.10;99.90;;;;;;4172627;28;20041;-65
2023/11/12 04:13:56;;;;;;;8.40;5.40;;;7.10;99.90;;;;;;4172612;28;20050;-65
2023/11/12 04:15:56;;;;;;;9.68;5.40;;;7.10;99.90;;;;;;4171871;28;20571;-65
2023/11/12 04:17:57;;;;;;;9.05;5.57;;;7.10;99.90;;;;;;4176288;28;20285;-65
2023/11/12 04:19:57;;;;;;;7.38;5.13;;;7.10;99.90;;;;;;4174510;28;20468;-65
2023/11/12 04:21:58;;;;;;;10.07;5.72;;;7.10;99.90;;;;;;4175060;28;20108;-65
2023/11/12 04:23:59;;;;;;;9.45;6.00;;;7.10;99.90;;;;;;4176721;28;20473;-65
2023/11/12 04:26:00;;;;;;;8.48;5.43;;;7.10;99.90;;;;;;4177278;28;20033;-65
2023/11/12 04:28:01;;;;;;;8.18;5.05;;;7.10;99.90;;;;;;4176160;28;20448;-65
2023/11/12 04:30:01;;;;;;;8.45;4.93;;;7.10;99.90;;;;;;4173874;28;20119;-65
2023/11/12 04:32:03;;;;;;;6.82;4.95;;;7.10;99.90;;;;;;4176495;28;20033;-65
2023/11/12 04:34:03;;;;;;;6.93;5.00;;;7.10;99.90;;;;;;4176944;28;20114;-65
2023/11/12 04:36:04;;;;;;;8.10;5.35;;;7.10;99.90;;;;;;4173427;28;20041;-65
2023/11/12 04:38:05;;;;;;;9.77;5.40;;;7.20;99.90;;;;;;4173384;28;20045;-65
2023/11/12 04:40:11;;;;;;;9.70;5.72;;;7.10;99.90;;;;;;4171265;28;20091;-65
2023/11/12 04:42:12;;;;;;;9.07;5.85;;;7.10;99.90;;;;;;4189101;28;20570;-64
2023/11/12 04:44:14;;;;;;;9.70;5.22;;;7.20;99.90;;;;;;4175701;28;20708;-65
2023/11/12 04:46:14;;;;;;;11.05;5.22;;;7.10;99.90;;;;;;4175983;28;20051;-66
2023/11/12 04:48:15;;;;;;;7.13;5.50;;;7.10;99.90;;;;;;4176032;28;20505;-66
2023/11/12 04:50:16;;;;;;;11.80;6.35;;;7.10;99.90;;;;;;4174243;28;20128;-65
2023/11/12 04:52:16;;;;;;;8.07;5.32;;;7.10;99.90;;;;;;4178093;28;20496;-65
2023/11/12 04:54:18;;;;;;;13.43;6.13;;;7.10;99.90;;;;;;4177451;28;20387;-65
2023/11/12 04:56:20;;;;;;;6.75;4.82;;;7.10;99.90;;;;;;4174002;28;20045;-65
2023/11/12 04:58:20;;;;;;;9.95;6.00;;;7.10;99.90;;;;;;4178068;28;20033;-65
2023/11/12 05:00:22;;;;;;;8.05;5.35;;;7.20;99.90;;;;;;4174208;28;20033;-65
2023/11/12 05:02:23;;;;;;;11.83;5.53;;;7.10;99.90;;;;;;4162979;28;20500;-65
2023/11/12 05:04:23;;;;;;;9.52;4.75;;;7.10;99.90;;;;;;4177834;28;20499;-65
2023/11/12 05:06:28;;;;;;;8.52;5.35;;;7.10;99.90;;;;;;4176929;28;20033;-65
2023/11/12 05:08:28;;;;;;;6.75;4.93;;;7.10;99.90;;;;;;4177710;28;20099;-65
2023/11/12 05:10:29;;;;;;;8.10;5.53;;;7.10;99.90;;;;;;4176106;28;20040;-65
2023/11/12 05:12:30;;;;;;;8.43;5.28;;;7.10;99.90;;;;;;4178264;28;20024;-65
2023/11/12 05:14:30;;;;;;;7.53;5.05;;;7.10;99.90;;;;;;4176803;28;20532;-65
2023/11/12 05:16:31;;;;;;;7.38;4.95;;;7.10;99.90;;;;;;4168791;28;20029;-65
2023/11/12 05:18:31;;;;;;;7.20;4.97;;;7.10;99.90;;;;;;4162524;28;20044;-68
2023/11/12 05:20:33;;;;;;;7.05;4.80;;;7.10;99.90;;;;;;4162957;28;20254;-69
2023/11/12 05:22:34;;;;;;;8.47;4.73;;;7.10;99.90;;;;;;4177605;28;20055;-69
2023/11/12 05:24:38;;;;;;;6.22;4.50;;;7.10;99.90;;;;;;4178173;28;20040;-69
2023/11/12 05:26:40;;;;;;;5.60;4.18;;;7.10;99.90;;;;;;4176940;28;20990;-69
2023/11/12 05:28:41;;;;;;;6.40;4.25;;;7.20;99.90;;;;;;4177856;28;20420;-69
2023/11/12 05:30:42;;;;;;;7.43;4.28;;;7.20;99.90;;;;;;4160584;28;20118;-69
2023/11/12 05:32:43;;;;;;;7.50;4.03;;;7.20;99.90;;;;;;4177690;28;20086;-69
2023/11/12 05:34:43;;;;;;;5.18;4.35;;;7.20;99.90;;;;;;4177368;28;20481;-68
2023/11/12 05:36:44;;;;;;;6.85;4.50;;;7.20;99.90;;;;;;4176038;28;20396;-69
2023/11/12 05:38:45;;;;;;;5.57;4.30;;;7.20;99.90;;;;;;4175482;28;20421;-69
2023/11/12 05:40:45;;;;;;;6.18;4.35;;;7.20;99.90;;;;;;4171542;28;20033;-68
2023/11/12 05:42:46;;;;;;;6.30;4.40;;;7.20;99.90;;;;;;4177873;28;20033;-69
2023/11/12 05:44:47;;;;;;;7.07;4.20;;;7.20;99.90;;;;;;4177901;28;20049;-69
2023/11/12 05:46:47;;;;;;;6.00;4.07;;;7.20;99.90;;;;;;4176268;28;20039;-69
2023/11/12 05:48:48;;;;;;;5.97;4.47;;;7.20;99.90;;;;;;4175921;28;20083;-69
2023/11/12 05:50:49;;;;;;;7.78;4.65;;;7.20;99.90;;;;;;4170849;28;20041;-69
2023/11/12 05:52:50;;;;;;;6.45;4.82;;;7.20;99.90;;;;;;4175072;28;20362;-69
2023/11/12 05:54:51;;;;;;;7.80;4.55;;;7.20;99.90;;;;;;4177394;28;20570;-69
2023/11/12 05:56:51;;;;;;;6.05;4.30;;;7.20;99.90;;;;;;4168255;28;20132;-69
2023/11/12 05:58:52;;;;;;;6.28;4.10;;;7.20;99.90;;;;;;4166320;28;20127;-69
2023/11/12 06:00:55;;;;;;;7.15;4.50;;;7.10;99.90;;;;;;4174272;28;20045;-69
2023/11/12 06:02:55;;;;;;;8.05;4.78;;;7.10;99.90;;;;;;4175269;28;20087;-69
2023/11/12 06:04:56;;;;;;;6.22;4.30;;;7.10;99.90;;;;;;4176534;28;20037;-69
2023/11/12 06:06:57;;;;;;;5.78;4.43;;;7.10;99.90;;;;;;4171134;28;20128;-69
2023/11/12 06:08:57;;;;;;;5.57;4.10;;;7.00;99.90;;;;;;4173812;28;20492;-69
2023/11/12 06:11:00;;;;;;;7.00;4.07;;;7.00;99.90;;;;;;4175815;28;20104;-69
2023/11/12 06:13:01;;;;;;;6.30;4.32;;;7.00;99.90;;;;;;4176955;28;20045;-69
2023/11/12 06:15:01;;;;;;;7.10;4.57;;;7.00;99.90;;;;;;4176706;28;20049;-69
2023/11/12 06:17:04;;;;;;;6.97;4.30;;;7.00;99.90;;;;;;4175688;28;20511;-69
2023/11/12 06:19:05;;;;;;;;;;;6.90;99.90;;;;;;4173891;28;20086;-69
2023/11/12 06:21:06;;;;;;;8.60;4.53;;;6.90;99.90;;;;;;4174614;28;19917;-69
2023/11/12 06:23:07;;;;;;;6.93;4.45;;;6.90;99.90;;;;;;4175239;28;20037;-69
2023/11/12 06:25:11;;;;;;;6.60;4.30;;;6.80;99.90;;;;;;4173603;28;20476;-70
2023/11/12 06:27:12;;;;;;;6.97;4.38;;;6.80;99.90;;;;;;4174743;28;20055;-77
2023/11/12 06:29:12;;;;;;;7.55;4.78;;;6.80;99.90;;;;;;4171061;28;20063;-69
2023/11/12 06:31:13;;;;;;;7.38;4.60;;;6.80;99.90;;;;;;4171292;28;20370;-69
2023/11/12 06:33:14;;;;;;;6.47;4.68;;;6.80;99.90;;;;;;4176460;28;20033;-68
2023/11/12 06:35:14;;;;;;;7.43;5.05;;;6.80;99.90;;;;;;4175872;28;20041;-68
2023/11/12 06:37:15;;;;;;;6.72;4.63;;;6.70;99.90;;;;;;4173642;28;20044;-69
2023/11/12 06:39:16;;;;;;;6.40;4.95;;;6.70;99.90;;;;;;4171938;28;20417;-69
2023/11/12 06:41:17;;;;;;;6.97;4.53;;;6.70;99.90;;;;;;4175127;28;20037;-69
2023/11/12 06:43:18;;;;;;;7.55;4.70;;;6.70;99.90;;;;;;4171170;28;20404;-70
2023/11/12 06:45:19;;;;;;;6.22;4.57;;;6.70;99.90;;;;;;4164689;28;20044;-69
2023/11/12 06:47:20;;;;;;;6.90;4.72;;;6.70;99.90;;;;;;4168161;28;20060;-69
2023/11/12 06:49:20;;;;;;;5.40;4.10;;;6.70;99.90;;;;;;4189164;28;20397;-69
2023/11/12 06:51:24;;;;;;;8.10;4.78;;;6.60;99.90;;;;;;4175416;28;20089;-69
2023/11/12 06:53:25;;;;;;;7.90;4.93;;;6.60;99.90;;;;;;4174684;28;20130;-68
2023/11/12 06:55:26;;;;;;;7.75;5.20;;;6.60;99.90;;;;;;4175592;28;20068;-69
2023/11/12 06:57:27;;;;;;;7.47;4.50;;;6.50;99.90;;;;;;4174039;28;20029;-69
2023/11/12 06:59:28;;;;;;;6.65;4.70;;;6.50;99.90;;;;;;4167048;28;20102;-69
2023/11/12 07:01:29;;;;;;;7.25;4.63;;;6.50;99.90;;;;;;4173486;28;20029;-69
2023/11/12 07:03:30;;;;;;;7.50;4.90;;;6.50;99.90;;;;;;4175153;28;20036;-69
2023/11/12 07:05:31;;;;;;;7.05;4.80;;;6.50;99.90;;;;;;4175004;28;20590;-68
2023/11/12 07:07:32;;;;;;;8.40;4.90;;;6.50;99.90;;;;;;4174659;28;20389;-68
2023/11/12 07:09:33;;;;;;;8.80;5.00;;;6.50;99.90;;;;;;4168342;28;20042;-68
2023/11/12 07:11:34;;;;;;;7.80;4.80;;;6.50;99.90;;;;;;4159776;28;20524;-68
2023/11/12 07:13:35;;;;;;;7.38;4.28;;;6.50;99.90;;;;;;4188541;28;20041;-68
2023/11/12 07:15:36;;;;;;;8.23;5.20;;;6.50;99.90;;;;;;4167890;28;20045;-68
2023/11/12 07:17:36;;;;;;;7.55;4.57;;;6.50;99.90;;;;;;4171091;28;20033;-68
2023/11/12 07:19:37;;;;;;;8.98;5.55;;;6.50;99.90;;;;;;4171242;28;20045;-68
2023/11/12 07:21:38;;;;;;;8.40;4.88;;;6.50;99.90;;;;;;4171123;28;20057;-68
2023/11/12 07:23:39;;;;;;;7.65;4.65;;;6.50;99.90;;;;;;4162546;28;20044;-68
2023/11/12 07:25:39;;;;;;;6.93;5.10;;;6.50;99.90;;;;;;4188651;28;20036;-68
2023/11/12 07:27:43;;;;;;;7.05;5.25;;;6.60;99.90;;;;;;4174377;28;20033;-68
2023/11/12 07:29:44;;;;;;;9.75;5.65;;;6.50;99.90;;;;;;4172021;28;20067;-68
2023/11/12 07:31:45;;;;;;;7.95;5.32;;;6.50;99.90;;;;;;4168383;28;20478;-69
2023/11/12 07:33:46;;;;;;;7.05;5.47;;;6.50;99.90;;;;;;4174194;28;20075;-69
2023/11/12 07:35:48;;;;;;;6.95;4.80;;;6.50;99.90;;;;;;4167102;28;20131;-68
2023/11/12 07:37:49;;;;;;;9.07;5.80;;;6.50;99.90;;;;;;4169917;28;20029;-68
2023/11/12 07:39:50;;;;;;;9.10;5.07;;;6.60;99.90;;;;;;4171429;28;20143;-67
2023/11/12 07:41:51;;;;;;;10.20;6.47;;;6.60;99.90;;;;;;4162996;28;20044;-68
2023/11/12 07:43:52;;;;;;;7.03;5.90;;;6.60;99.90;;;;;;4173614;28;20470;-68
2023/11/12 07:45:52;;;;;;;8.23;6.10;;;6.70;99.90;;;;;;4174480;28;20131;-67
2023/11/12 07:47:53;;;;;;;9.52;5.78;;;6.70;99.90;;;;;;4187552;28;20051;-67
2023/11/12 07:49:54;;;;;;;8.15;5.35;;;6.80;99.90;;;;;;4169502;28;20037;-67
2023/11/12 07:51:54;;;;;;;9.25;5.50;;;7.00;99.90;;;;;;4171458;28;20396;-68
2023/11/12 07:53:55;;;;;;;7.32;5.28;;;7.30;99.90;;;;;;4174363;28;20053;-67
2023/11/12 07:55:55;;;;;;;9.43;5.38;;;7.60;99.90;;;;;;4175069;28;20129;-67
2023/11/12 07:57:56;;;;;;;8.80;5.40;;;7.90;99.90;;;;;;4174662;28;20049;-68
2023/11/12 07:59:57;;;;;;;9.13;5.70;;;8.30;99.90;;;;;;4172153;28;20611;-68
2023/11/12 08:01:57;;;;;;;7.03;5.05;;;8.60;99.90;;;;;;4174931;28;20523;-67
2023/11/12 08:03:58;;;;;;;9.85;5.70;;;8.90;99.90;;;;;;4172341;28;20038;-67
2023/11/12 08:05:58;;;;;;;7.43;5.45;;;9.30;99.90;;;;;;4186871;28;20046;-67
2023/11/12 08:07:59;;;;;;;7.90;5.55;;;9.60;99.90;;;;;;4173554;28;20041;-67
2023/11/12 08:10:04;;;;;;;11.13;5.05;;;9.90;99.90;;;;;;4172252;28;20045;-67
2023/11/12 08:12:04;;;;;;;6.70;4.03;;;10.10;99.90;;;;;;4173855;28;20451;-67
2023/11/12 08:14:05;;;;;;;8.18;4.47;;;10.40;99.90;;;;;;4176666;28;21595;-67
2023/11/12 08:16:06;;;;;;;9.68;4.57;;;10.60;99.90;;;;;;4177609;28;20425;-67
2023/11/12 08:18:07;;;;;;;4.75;3.80;;;10.90;99.90;;;;;;4178494;28;20037;-67
2023/11/12 08:20:09;;;;;;;7.93;4.13;;;11.10;99.90;;;;;;4189739;28;20090;-67
2023/11/12 08:22:09;;;;;;;5.38;3.50;;;11.30;99.90;;;;;;4178727;28;20086;-67
2023/11/12 08:24:10;;;;;;;5.43;3.50;;;11.40;99.90;;;;;;4183709;28;20104;-67
2023/11/12 08:26:10;;;;;;;6.72;3.67;;;11.70;99.90;;;;;;4198126;28;20036;-67
2023/11/12 08:28:12;;;;;;;9.65;3.60;;;11.90;99.90;;;;;;4184194;28;20044;-67
2023/11/12 08:30:13;;;;;;;5.57;3.78;;;12.10;99.90;;;;;;4174638;28;20045;-67
2023/11/12 08:32:14;;;;;;;5.68;3.35;;;12.20;99.90;;;;;;4178561;28;20033;-67
2023/11/12 08:34:14;;;;;;;5.45;3.50;;;12.40;99.90;;;;;;4178605;28;20074;-67
2023/11/12 08:36:15;;;;;;;4.95;3.40;;;12.40;99.90;;;;;;4177644;28;20056;-67
2023/11/12 08:38:16;;;;;;;4.55;3.35;;;12.60;99.90;;;;;;4178703;28;20041;-67
2023/11/12 08:40:17;;;;;;;5.22;3.63;;;12.80;99.90;;;;;;4169087;28;20128;-68
2023/11/12 08:42:17;;;;;;;5.85;3.40;;;12.80;99.90;;;;;;4162563;28;20029;-67
2023/11/12 08:44:18;;;;;;;4.65;3.13;;;12.90;99.90;;;;;;4168633;28;20029;-68
2023/11/12 08:46:19;;;;;;;5.07;2.90;;;13.00;99.90;;;;;;4172828;28;20083;-67
2023/11/12 08:48:20;;;;;;;5.20;2.78;;;13.20;99.90;;;;;;4171309;28;20064;-68
2023/11/12 08:50:20;;;;;;;7.30;3.38;;;13.20;99.90;;;;;;4173861;28;21214;-68
2023/11/12 08:52:21;;;;;;;5.32;3.45;;;13.30;99.90;;;;;;4174915;28;20033;-68
2023/11/12 08:54:23;;;;;;;4.30;2.90;;;13.30;99.90;;;;;;4155448;28;20053;-68
2023/11/12 08:56:25;;;;;;;4.53;2.75;;;13.20;99.90;;;;;;4171392;28;20052;-68
2023/11/12 08:58:28;;;;;;;5.80;3.10;;;13.20;99.90;;;;;;4174832;28;20374;-70
2023/11/12 09:00:29;;;;;;;4.00;2.72;;;13.30;99.90;;;;;;4173355;28;20040;-70
2023/11/12 09:02:29;;;;;;;4.53;2.88;;;13.20;99.90;;;;;;4172466;28;20036;-70
2023/11/12 09:04:30;;;;;;;5.07;2.90;;;13.30;99.90;;;;;;4174380;28;20117;-70
2023/11/12 09:06:30;;;;;;;5.03;2.63;;;13.20;99.90;;;;;;4173382;28;20040;-70
2023/11/12 09:08:31;;;;;;;3.67;2.80;;;13.20;99.90;;;;;;4174284;28;20029;-69
2023/11/12 09:10:32;;;;;;;5.15;2.92;;;13.10;99.90;;;;;;4175554;28;20033;-70
2023/11/12 09:12:33;;;;;;;5.25;2.67;;;13.00;99.90;;;;;;4175323;28;20641;-70
2023/11/12 09:14:34;;;;;;;6.70;3.25;;;12.90;99.90;;;;;;4173843;28;20041;-69
2023/11/12 09:16:34;;;;;;;5.93;3.20;;;12.80;99.90;;;;;;4174019;28;20029;-70
2023/11/12 09:18:35;;;;;;;7.10;3.03;;;12.80;99.90;;;;;;4174353;28;20053;-70
2023/11/12 09:20:36;;;;;;;5.88;2.92;;;12.80;99.90;;;;;;4173434;28;20033;-70
2023/11/12 09:22:36;;;;;;;4.10;2.47;;;12.80;99.90;;;;;;4172763;28;20037;-70
2023/11/12 09:24:37;;;;;;;5.18;3.13;;;12.80;99.90;;;;;;4173735;28;20032;-70
2023/11/12 09:26:37;;;;;;;3.85;2.63;;;12.80;99.90;;;;;;4173930;28;20052;-70
2023/11/12 09:28:38;;;;;;;4.45;2.83;;;12.70;99.90;;;;;;4174243;28;20041;-70
2023/11/12 09:30:39;;;;;;;4.28;3.00;;;12.60;99.90;;;;;;4169734;28;20037;-70
2023/11/12 09:32:40;;;;;;;6.07;2.97;;;12.60;99.90;;;;;;4173958;28;20037;-70
2023/11/12 09:34:41;;;;;;;7.87;3.50;;;12.60;99.90;;;;;;4172133;28;20041;-70
2023/11/12 09:36:41;;;;;;;6.57;3.08;;;12.50;99.90;;;;;;4172033;28;20582;-70
2023/11/12 09:38:42;;;;;;;7.20;3.47;;;12.40;99.90;;;;;;4174926;28;20033;-70
2023/11/12 09:40:43;;;;;;;6.10;3.33;;;12.40;99.90;;;;;;4172225;28;20114;-70
2023/11/12 09:42:49;;;;;;;5.78;2.97;;;12.30;99.90;;;;;;4174821;28;20044;-70
2023/11/12 09:44:54;;;;;;;6.18;3.00;;;12.20;99.90;;;;;;4172630;28;20481;-70
2023/11/12 09:47:22;;;;;;;4.97;3.55;;;12.20;99.90;;;;;;4173266;28;20085;-70
2023/11/12 09:49:22;;;;;;;5.32;3.42;;;12.10;99.90;;;;;;4164153;28;20404;-70
2023/11/12 09:51:24;;;;;;;5.30;2.63;;;11.90;99.90;;;;;;4183523;28;20043;-70
2023/11/12 09:53:26;;;;;;;5.57;3.20;;;11.90;99.90;;;;;;4181707;28;20059;-71
2023/11/12 09:55:27;;;;;;;;;;;11.90;99.90;;;;;;4183711;28;20063;-70
2023/11/12 09:57:29;;;;;;;5.18;2.80;;;11.80;99.90;;;;;;4177907;28;19950;-70
2023/11/12 09:59:30;;;;;;;5.78;3.15;;;11.90;99.90;;;;;;4176970;28;20033;-70
2023/11/12 10:01:32;;;;;;;7.50;2.92;;;11.80;99.90;;;;;;4176329;28;20056;-70
2023/11/12 10:03:33;;;;;;;5.88;2.70;;;11.70;99.90;;;;;;4174343;28;20500;-71
2023/11/12 10:05:34;;;;;;;4.10;2.55;;;11.70;99.90;;;;;;4174482;28;20583;-70
2023/11/12 10:07:39;;;;;;;6.72;3.13;;;11.70;99.90;;;;;;4176729;28;20116;-69
2023/11/12 10:09:40;;;;;;;7.22;3.03;;;11.70;99.90;;;;;;4176801;28;20041;-70
2023/11/12 10:11:41;;;;;;;5.15;3.35;;;11.70;99.90;;;;;;4177913;28;20569;-70
2023/11/12 10:13:42;;;;;;;3.38;2.85;;;11.70;99.90;;;;;;4189566;28;20028;-70
2023/11/12 10:15:43;;;;;;;4.97;2.88;;;11.60;99.90;;;;;;4169881;28;20037;-70
2023/11/12 10:17:45;;;;;;;5.90;3.08;;;11.60;99.90;;;;;;4172976;28;20033;-70
2023/11/12 10:19:56;;;;;;;4.57;3.10;;;11.60;99.90;;;;;;4173372;28;20039;-70
2023/11/12 10:21:59;;;;;;;4.47;2.90;;;11.60;99.90;;;;;;4156747;28;20045;-68
2023/11/12 10:24:05;;;;;;;;;;;11.50;99.90;;;;;;4160772;28;20033;-68
2023/11/12 10:26:11;;;;;;;4.55;3.10;;;11.50;99.90;;;;;;4160223;28;20381;-68
2023/11/12 10:28:12;;;;;;;6.18;3.22;;;11.50;99.90;;;;;;4167988;28;20041;-70
2023/11/12 10:30:17;;;;;;;6.07;3.17;;;11.50;99.90;;;;;;4167324;28;20033;-70
2023/11/12 10:32:27;;;;;;;4.30;2.75;;;11.50;99.90;;;;;;4162196;28;20033;-70
2023/11/12 10:34:28;;;;;;;7.60;3.58;;;11.50;99.90;;;;;;4170679;28;20094;-70
2023/11/12 10:36:28;;;;;;;7.50;3.08;;;11.50;99.90;;;;;;4159024;28;20048;-70
2023/11/12 10:38:46;;;;;;;6.05;2.95;;;11.50;99.90;;;;;;4160139;28;20025;-70